sensor_id;sensor_type;location;lat;lon;timestamp;P1;durP1;ratioP1;P2;durP2;ratioP2
5363;SDS011;2705;41.410;2.160;2023-12-14T00:02:06;1.07;;;1.07;;
5363;SDS011;2705;41.410;2.160;2023-12-14T00:04:37;1.07;;;1.07;;
5363;SDS011;2705;41.410;2.160;2023-12-14T00:07:06;1.20;;;1.10;;
5363;SDS011;2705;41.410;2.160;2023-12-14T00:09:35;1.30;;;1.20;;
5363;SDS011;2705;41.410;2.160;2023-12-14T00:12:04;1.30;;;1.20;;
5363;SDS011;2705;41.410;2.160;2023-12-14T00:14:33;1.10;;;1.10;;
5363;SDS011;2705;41.410;2.160;2023-12-14T00:17:02;1.87;;;1.30;;
5363;SDS011;2705;41.410;2.160;2023-12-14T00:19:32;1.43;;;1.30;;
5363;SDS011;2705;41.410;2.160;2023-12-14T00:22:02;1.00;;;1.00;;
5363;SDS011;2705;41.410;2.160;2023-12-14T00:24:32;1.17;;;1.17;;
5363;SDS011;2705;41.410;2.160;2023-12-14T00:27:01;1.43;;;1.07;;
5363;SDS011;2705;41.410;2.160;2023-12-14T00:29:30;1.00;;;1.00;;
5363;SDS011;2705;41.410;2.160;2023-12-14T00:31:59;1.10;;;1.10;;
5363;SDS011;2705;41.410;2.160;2023-12-14T00:34:28;3.93;;;1.80;;
5363;SDS011;2705;41.410;2.160;2023-12-14T00:36:57;1.07;;;1.07;;
5363;SDS011;2705;41.410;2.160;2023-12-14T00:39:27;1.10;;;1.10;;
5363;SDS011;2705;41.410;2.160;2023-12-14T00:41:56;1.10;;;1.10;;
5363;SDS011;2705;41.410;2.160;2023-12-14T00:44:25;1.10;;;1.10;;
5363;SDS011;2705;41.410;2.160;2023-12-14T00:46:54;1.20;;;1.10;;
5363;SDS011;2705;41.410;2.160;2023-12-14T00:49:22;1.07;;;1.07;;
5363;SDS011;2705;41.410;2.160;2023-12-14T00:51:51;1.53;;;1.17;;
5363;SDS011;2705;41.410;2.160;2023-12-14T00:54:20;1.33;;;1.23;;
5363;SDS011;2705;41.410;2.160;2023-12-14T00:56:51;1.37;;;1.27;;
5363;SDS011;2705;41.410;2.160;2023-12-14T00:59:20;1.30;;;1.20;;
5363;SDS011;2705;41.410;2.160;2023-12-14T01:01:49;1.33;;;1.23;;
5363;SDS011;2705;41.410;2.160;2023-12-14T01:04:18;0.97;;;0.97;;
5363;SDS011;2705;41.410;2.160;2023-12-14T01:06:47;1.20;;;1.20;;
5363;SDS011;2705;41.410;2.160;2023-12-14T01:09:16;1.10;;;1.10;;
5363;SDS011;2705;41.410;2.160;2023-12-14T01:11:45;1.13;;;1.10;;
5363;SDS011;2705;41.410;2.160;2023-12-14T01:14:15;1.10;;;1.10;;
5363;SDS011;2705;41.410;2.160;2023-12-14T01:16:44;1.00;;;1.00;;
5363;SDS011;2705;41.410;2.160;2023-12-14T01:19:13;1.10;;;1.10;;
5363;SDS011;2705;41.410;2.160;2023-12-14T01:21:42;1.67;;;1.10;;
5363;SDS011;2705;41.410;2.160;2023-12-14T01:24:11;1.30;;;1.20;;
5363;SDS011;2705;41.410;2.160;2023-12-14T01:26:41;1.10;;;1.10;;
5363;SDS011;2705;41.410;2.160;2023-12-14T01:29:10;1.10;;;1.10;;
5363;SDS011;2705;41.410;2.160;2023-12-14T01:31:40;2.40;;;1.37;;
5363;SDS011;2705;41.410;2.160;2023-12-14T01:34:10;1.00;;;1.00;;
5363;SDS011;2705;41.410;2.160;2023-12-14T01:36:39;1.10;;;1.10;;
5363;SDS011;2705;41.410;2.160;2023-12-14T01:39:08;1.20;;;1.10;;
5363;SDS011;2705;41.410;2.160;2023-12-14T01:41:37;1.07;;;1.07;;
5363;SDS011;2705;41.410;2.160;2023-12-14T01:44:06;1.10;;;1.10;;
5363;SDS011;2705;41.410;2.160;2023-12-14T01:46:35;1.63;;;1.20;;
5363;SDS011;2705;41.410;2.160;2023-12-14T01:49:06;2.20;;;1.57;;
5363;SDS011;2705;41.410;2.160;2023-12-14T01:51:35;1.30;;;1.20;;
5363;SDS011;2705;41.410;2.160;2023-12-14T01:54:04;1.00;;;1.00;;
5363;SDS011;2705;41.410;2.160;2023-12-14T01:56:33;1.03;;;1.03;;
5363;SDS011;2705;41.410;2.160;2023-12-14T01:59:02;1.10;;;1.10;;
5363;SDS011;2705;41.410;2.160;2023-12-14T02:01:33;1.30;;;1.20;;
5363;SDS011;2705;41.410;2.160;2023-12-14T02:04:11;4.90;;;1.60;;
5363;SDS011;2705;41.410;2.160;2023-12-14T02:06:41;1.00;;;1.00;;
5363;SDS011;2705;41.410;2.160;2023-12-14T02:09:10;1.10;;;1.10;;
5363;SDS011;2705;41.410;2.160;2023-12-14T02:11:39;0.80;;;0.80;;
5363;SDS011;2705;41.410;2.160;2023-12-14T02:14:09;1.40;;;1.30;;
5363;SDS011;2705;41.410;2.160;2023-12-14T02:16:38;1.10;;;1.10;;
5363;SDS011;2705;41.410;2.160;2023-12-14T02:19:07;1.00;;;1.00;;
5363;SDS011;2705;41.410;2.160;2023-12-14T02:21:38;1.00;;;1.00;;
5363;SDS011;2705;41.410;2.160;2023-12-14T02:24:08;1.10;;;1.10;;
5363;SDS011;2705;41.410;2.160;2023-12-14T02:26:37;1.87;;;1.23;;
5363;SDS011;2705;41.410;2.160;2023-12-14T02:29:06;1.20;;;1.10;;
5363;SDS011;2705;41.410;2.160;2023-12-14T02:31:35;1.47;;;1.30;;
5363;SDS011;2705;41.410;2.160;2023-12-14T02:34:04;0.90;;;0.90;;
5363;SDS011;2705;41.410;2.160;2023-12-14T02:36:33;1.13;;;1.03;;
5363;SDS011;2705;41.410;2.160;2023-12-14T02:39:02;1.00;;;1.00;;
5363;SDS011;2705;41.410;2.160;2023-12-14T02:41:33;0.90;;;0.90;;
5363;SDS011;2705;41.410;2.160;2023-12-14T02:44:02;0.80;;;0.80;;
5363;SDS011;2705;41.410;2.160;2023-12-14T02:46:31;0.90;;;0.90;;
5363;SDS011;2705;41.410;2.160;2023-12-14T02:49:01;2.07;;;1.23;;
5363;SDS011;2705;41.410;2.160;2023-12-14T02:51:30;2.70;;;1.57;;
5363;SDS011;2705;41.410;2.160;2023-12-14T02:53:59;1.30;;;1.20;;
5363;SDS011;2705;41.410;2.160;2023-12-14T02:56:28;1.20;;;1.10;;
5363;SDS011;2705;41.410;2.160;2023-12-14T02:58:59;1.53;;;1.30;;
5363;SDS011;2705;41.410;2.160;2023-12-14T03:01:28;1.40;;;1.30;;
5363;SDS011;2705;41.410;2.160;2023-12-14T03:03:57;1.30;;;1.20;;
5363;SDS011;2705;41.410;2.160;2023-12-14T03:06:26;2.80;;;1.20;;
5363;SDS011;2705;41.410;2.160;2023-12-14T03:08:55;2.60;;;1.47;;
5363;SDS011;2705;41.410;2.160;2023-12-14T03:11:24;1.10;;;1.10;;
5363;SDS011;2705;41.410;2.160;2023-12-14T03:13:53;1.07;;;1.07;;
5363;SDS011;2705;41.410;2.160;2023-12-14T03:16:24;1.03;;;1.03;;
5363;SDS011;2705;41.410;2.160;2023-12-14T03:18:53;1.00;;;1.00;;
5363;SDS011;2705;41.410;2.160;2023-12-14T03:21:23;0.97;;;0.97;;
5363;SDS011;2705;41.410;2.160;2023-12-14T03:23:52;1.20;;;1.20;;
5363;SDS011;2705;41.410;2.160;2023-12-14T03:26:21;1.10;;;1.10;;
5363;SDS011;2705;41.410;2.160;2023-12-14T03:28:50;1.07;;;1.07;;
5363;SDS011;2705;41.410;2.160;2023-12-14T03:31:19;1.33;;;1.23;;
5363;SDS011;2705;41.410;2.160;2023-12-14T03:33:49;1.00;;;1.00;;
5363;SDS011;2705;41.410;2.160;2023-12-14T03:36:18;1.33;;;1.23;;
5363;SDS011;2705;41.410;2.160;2023-12-14T03:38:49;1.40;;;1.30;;
5363;SDS011;2705;41.410;2.160;2023-12-14T03:41:18;1.07;;;1.07;;
5363;SDS011;2705;41.410;2.160;2023-12-14T03:43:47;1.50;;;1.40;;
5363;SDS011;2705;41.410;2.160;2023-12-14T03:46:16;1.43;;;1.33;;
5363;SDS011;2705;41.410;2.160;2023-12-14T03:48:45;1.30;;;1.20;;
5363;SDS011;2705;41.410;2.160;2023-12-14T03:51:18;1.40;;;1.30;;
5363;SDS011;2705;41.410;2.160;2023-12-14T03:53:48;2.00;;;1.37;;
5363;SDS011;2705;41.410;2.160;2023-12-14T03:56:17;1.40;;;1.30;;
5363;SDS011;2705;41.410;2.160;2023-12-14T03:58:46;1.70;;;1.60;;
5363;SDS011;2705;41.410;2.160;2023-12-14T04:01:16;1.40;;;1.30;;
5363;SDS011;2705;41.410;2.160;2023-12-14T04:03:45;1.40;;;1.30;;
5363;SDS011;2705;41.410;2.160;2023-12-14T04:06:15;1.30;;;1.20;;
5363;SDS011;2705;41.410;2.160;2023-12-14T04:08:45;2.53;;;1.30;;
5363;SDS011;2705;41.410;2.160;2023-12-14T04:11:14;1.50;;;1.40;;
5363;SDS011;2705;41.410;2.160;2023-12-14T04:13:43;1.70;;;1.30;;
5363;SDS011;2705;41.410;2.160;2023-12-14T04:16:13;1.40;;;1.30;;
5363;SDS011;2705;41.410;2.160;2023-12-14T04:18:42;2.70;;;1.40;;
5363;SDS011;2705;41.410;2.160;2023-12-14T04:21:11;1.43;;;1.33;;
5363;SDS011;2705;41.410;2.160;2023-12-14T04:23:40;3.23;;;1.40;;
5363;SDS011;2705;41.410;2.160;2023-12-14T04:26:11;1.50;;;1.40;;
5363;SDS011;2705;41.410;2.160;2023-12-14T04:28:41;2.60;;;1.63;;
5363;SDS011;2705;41.410;2.160;2023-12-14T04:31:11;6.00;;;1.50;;
5363;SDS011;2705;41.410;2.160;2023-12-14T04:33:40;1.50;;;1.40;;
5363;SDS011;2705;41.410;2.160;2023-12-14T04:36:09;1.30;;;1.20;;
5363;SDS011;2705;41.410;2.160;2023-12-14T04:38:39;1.30;;;1.20;;
5363;SDS011;2705;41.410;2.160;2023-12-14T04:41:08;1.53;;;1.30;;
5363;SDS011;2705;41.410;2.160;2023-12-14T04:43:38;1.40;;;1.30;;
5363;SDS011;2705;41.410;2.160;2023-12-14T04:46:07;1.70;;;1.60;;
5363;SDS011;2705;41.410;2.160;2023-12-14T04:48:36;1.60;;;1.50;;
5363;SDS011;2705;41.410;2.160;2023-12-14T04:51:05;1.53;;;1.40;;
5363;SDS011;2705;41.410;2.160;2023-12-14T04:53:40;1.77;;;1.43;;
5363;SDS011;2705;41.410;2.160;2023-12-14T04:56:09;1.33;;;1.20;;
5363;SDS011;2705;41.410;2.160;2023-12-14T04:58:41;3.00;;;1.30;;
5363;SDS011;2705;41.410;2.160;2023-12-14T05:01:12;1.10;;;1.00;;
5363;SDS011;2705;41.410;2.160;2023-12-14T05:03:42;1.23;;;1.10;;
5363;SDS011;2705;41.410;2.160;2023-12-14T05:06:11;1.30;;;1.20;;
5363;SDS011;2705;41.410;2.160;2023-12-14T05:08:40;1.40;;;1.30;;
5363;SDS011;2705;41.410;2.160;2023-12-14T05:11:09;14.80;;;1.50;;
5363;SDS011;2705;41.410;2.160;2023-12-14T05:13:38;1.20;;;1.10;;
5363;SDS011;2705;41.410;2.160;2023-12-14T05:16:12;1.70;;;1.40;;
5363;SDS011;2705;41.410;2.160;2023-12-14T05:18:42;1.63;;;1.20;;
5363;SDS011;2705;41.410;2.160;2023-12-14T05:21:15;1.70;;;1.30;;
5363;SDS011;2705;41.410;2.160;2023-12-14T05:23:45;1.30;;;1.20;;
5363;SDS011;2705;41.410;2.160;2023-12-14T05:26:14;1.57;;;1.47;;
5363;SDS011;2705;41.410;2.160;2023-12-14T05:28:45;1.07;;;1.00;;
5363;SDS011;2705;41.410;2.160;2023-12-14T05:31:15;1.93;;;1.30;;
5363;SDS011;2705;41.410;2.160;2023-12-14T05:33:45;1.30;;;1.20;;
5363;SDS011;2705;41.410;2.160;2023-12-14T05:36:14;6.63;;;1.50;;
5363;SDS011;2705;41.410;2.160;2023-12-14T05:38:43;2.00;;;1.20;;
5363;SDS011;2705;41.410;2.160;2023-12-14T05:41:12;1.50;;;1.20;;
5363;SDS011;2705;41.410;2.160;2023-12-14T05:43:41;2.30;;;1.33;;
5363;SDS011;2705;41.410;2.160;2023-12-14T05:46:20;1.40;;;1.30;;
5363;SDS011;2705;41.410;2.160;2023-12-14T05:48:50;1.83;;;1.33;;
5363;SDS011;2705;41.410;2.160;2023-12-14T05:51:26;5.03;;;1.20;;
5363;SDS011;2705;41.410;2.160;2023-12-14T05:53:56;3.47;;;1.40;;
5363;SDS011;2705;41.410;2.160;2023-12-14T05:56:25;1.83;;;1.23;;
5363;SDS011;2705;41.410;2.160;2023-12-14T05:58:54;1.77;;;1.50;;
5363;SDS011;2705;41.410;2.160;2023-12-14T06:01:25;1.37;;;1.27;;
5363;SDS011;2705;41.410;2.160;2023-12-14T06:03:54;1.37;;;1.27;;
5363;SDS011;2705;41.410;2.160;2023-12-14T06:06:23;1.40;;;1.30;;
5363;SDS011;2705;41.410;2.160;2023-12-14T06:08:52;1.40;;;1.30;;
5363;SDS011;2705;41.410;2.160;2023-12-14T06:11:21;1.47;;;1.23;;
5363;SDS011;2705;41.410;2.160;2023-12-14T06:13:51;3.10;;;1.20;;
5363;SDS011;2705;41.410;2.160;2023-12-14T06:16:20;1.40;;;1.30;;
5363;SDS011;2705;41.410;2.160;2023-12-14T06:18:50;6.07;;;3.17;;
5363;SDS011;2705;41.410;2.160;2023-12-14T06:21:20;1.87;;;1.30;;
5363;SDS011;2705;41.410;2.160;2023-12-14T06:23:50;2.40;;;1.67;;
5363;SDS011;2705;41.410;2.160;2023-12-14T06:26:19;1.70;;;1.40;;
5363;SDS011;2705;41.410;2.160;2023-12-14T06:28:47;4.10;;;1.60;;
5363;SDS011;2705;41.410;2.160;2023-12-14T06:31:17;1.83;;;1.50;;
5363;SDS011;2705;41.410;2.160;2023-12-14T06:33:50;1.30;;;1.20;;
5363;SDS011;2705;41.410;2.160;2023-12-14T06:36:19;1.40;;;1.30;;
5363;SDS011;2705;41.410;2.160;2023-12-14T06:38:48;4.20;;;1.07;;
5363;SDS011;2705;41.410;2.160;2023-12-14T06:41:20;1.00;;;1.00;;
5363;SDS011;2705;41.410;2.160;2023-12-14T06:43:50;3.63;;;1.60;;
5363;SDS011;2705;41.410;2.160;2023-12-14T06:46:20;1.90;;;1.20;;
5363;SDS011;2705;41.410;2.160;2023-12-14T06:48:51;2.40;;;1.20;;
5363;SDS011;2705;41.410;2.160;2023-12-14T06:51:21;1.97;;;1.40;;
5363;SDS011;2705;41.410;2.160;2023-12-14T06:53:51;1.27;;;1.17;;
5363;SDS011;2705;41.410;2.160;2023-12-14T06:56:20;2.20;;;1.20;;
5363;SDS011;2705;41.410;2.160;2023-12-14T06:58:50;1.70;;;1.60;;
5363;SDS011;2705;41.410;2.160;2023-12-14T07:01:23;3.23;;;1.30;;
5363;SDS011;2705;41.410;2.160;2023-12-14T07:03:54;1.47;;;1.10;;
5363;SDS011;2705;41.410;2.160;2023-12-14T07:06:23;2.10;;;1.67;;
5363;SDS011;2705;41.410;2.160;2023-12-14T07:08:52;2.00;;;1.40;;
5363;SDS011;2705;41.410;2.160;2023-12-14T07:11:21;1.33;;;1.23;;
5363;SDS011;2705;41.410;2.160;2023-12-14T07:13:49;1.30;;;1.20;;
5363;SDS011;2705;41.410;2.160;2023-12-14T07:16:18;1.33;;;1.17;;
5363;SDS011;2705;41.410;2.160;2023-12-14T07:18:47;2.40;;;1.40;;
5363;SDS011;2705;41.410;2.160;2023-12-14T07:21:18;1.20;;;1.03;;
5363;SDS011;2705;41.410;2.160;2023-12-14T07:23:47;1.77;;;1.60;;
5363;SDS011;2705;41.410;2.160;2023-12-14T07:26:16;1.17;;;1.10;;
5363;SDS011;2705;41.410;2.160;2023-12-14T07:28:46;3.63;;;1.50;;
5363;SDS011;2705;41.410;2.160;2023-12-14T07:31:15;2.60;;;1.30;;
5363;SDS011;2705;41.410;2.160;2023-12-14T07:33:44;1.23;;;1.13;;
5363;SDS011;2705;41.410;2.160;2023-12-14T07:36:14;2.10;;;1.57;;
5363;SDS011;2705;41.410;2.160;2023-12-14T07:38:44;1.53;;;1.40;;
5363;SDS011;2705;41.410;2.160;2023-12-14T07:41:13;1.33;;;1.23;;
5363;SDS011;2705;41.410;2.160;2023-12-14T07:43:42;1.30;;;1.20;;
5363;SDS011;2705;41.410;2.160;2023-12-14T07:46:12;3.50;;;1.70;;
5363;SDS011;2705;41.410;2.160;2023-12-14T07:48:41;1.30;;;1.20;;
5363;SDS011;2705;41.410;2.160;2023-12-14T07:51:10;1.80;;;1.30;;
5363;SDS011;2705;41.410;2.160;2023-12-14T07:53:40;7.63;;;1.50;;
5363;SDS011;2705;41.410;2.160;2023-12-14T07:56:11;1.30;;;1.20;;
5363;SDS011;2705;41.410;2.160;2023-12-14T07:58:40;1.27;;;1.10;;
5363;SDS011;2705;41.410;2.160;2023-12-14T08:01:13;4.93;;;1.20;;
5363;SDS011;2705;41.410;2.160;2023-12-14T08:03:42;1.30;;;1.20;;
5363;SDS011;2705;41.410;2.160;2023-12-14T08:06:11;1.20;;;1.10;;
5363;SDS011;2705;41.410;2.160;2023-12-14T08:08:42;1.50;;;1.40;;
5363;SDS011;2705;41.410;2.160;2023-12-14T08:11:13;7.93;;;1.77;;
5363;SDS011;2705;41.410;2.160;2023-12-14T08:13:42;1.53;;;1.17;;
5363;SDS011;2705;41.410;2.160;2023-12-14T08:16:11;1.50;;;1.40;;
5363;SDS011;2705;41.410;2.160;2023-12-14T08:18:40;1.40;;;1.23;;
5363;SDS011;2705;41.410;2.160;2023-12-14T08:21:09;1.50;;;1.40;;
5363;SDS011;2705;41.410;2.160;2023-12-14T08:23:39;2.07;;;1.30;;
5363;SDS011;2705;41.410;2.160;2023-12-14T08:26:08;2.73;;;1.50;;
5363;SDS011;2705;41.410;2.160;2023-12-14T08:28:41;1.40;;;1.30;;
5363;SDS011;2705;41.410;2.160;2023-12-14T08:31:11;3.13;;;1.47;;
5363;SDS011;2705;41.410;2.160;2023-12-14T08:33:40;3.10;;;1.10;;
5363;SDS011;2705;41.410;2.160;2023-12-14T08:36:15;1.77;;;1.37;;
5363;SDS011;2705;41.410;2.160;2023-12-14T08:38:44;1.73;;;1.53;;
5363;SDS011;2705;41.410;2.160;2023-12-14T08:41:13;2.33;;;1.30;;
5363;SDS011;2705;41.410;2.160;2023-12-14T08:43:44;1.53;;;1.13;;
5363;SDS011;2705;41.410;2.160;2023-12-14T08:46:14;1.40;;;1.30;;
5363;SDS011;2705;41.410;2.160;2023-12-14T08:48:43;5.80;;;1.90;;
5363;SDS011;2705;41.410;2.160;2023-12-14T08:51:12;2.20;;;1.40;;
5363;SDS011;2705;41.410;2.160;2023-12-14T08:53:41;7.57;;;1.57;;
5363;SDS011;2705;41.410;2.160;2023-12-14T08:56:10;3.10;;;1.60;;
5363;SDS011;2705;41.410;2.160;2023-12-14T08:58:39;2.90;;;1.70;;
5363;SDS011;2705;41.410;2.160;2023-12-14T09:01:10;3.00;;;1.40;;
5363;SDS011;2705;41.410;2.160;2023-12-14T09:03:39;2.93;;;1.20;;
5363;SDS011;2705;41.410;2.160;2023-12-14T09:06:08;1.30;;;1.20;;
5363;SDS011;2705;41.410;2.160;2023-12-14T09:08:56;3.77;;;1.30;;
5363;SDS011;2705;41.410;2.160;2023-12-14T09:11:25;1.60;;;1.23;;
5363;SDS011;2705;41.410;2.160;2023-12-14T09:13:54;2.07;;;1.33;;
5363;SDS011;2705;41.410;2.160;2023-12-14T09:16:25;1.27;;;1.17;;
5363;SDS011;2705;41.410;2.160;2023-12-14T09:18:54;5.80;;;4.40;;
5363;SDS011;2705;41.410;2.160;2023-12-14T09:21:23;1.93;;;1.30;;
5363;SDS011;2705;41.410;2.160;2023-12-14T09:24:06;1.60;;;1.20;;
5363;SDS011;2705;41.410;2.160;2023-12-14T09:26:39;2.30;;;1.10;;
5363;SDS011;2705;41.410;2.160;2023-12-14T09:29:08;1.30;;;1.20;;
5363;SDS011;2705;41.410;2.160;2023-12-14T09:31:41;1.87;;;1.23;;
5363;SDS011;2705;41.410;2.160;2023-12-14T09:34:11;1.97;;;1.60;;
5363;SDS011;2705;41.410;2.160;2023-12-14T09:36:41;5.03;;;2.57;;
5363;SDS011;2705;41.410;2.160;2023-12-14T09:39:10;10.03;;;1.83;;
5363;SDS011;2705;41.410;2.160;2023-12-14T09:41:38;4.77;;;2.40;;
5363;SDS011;2705;41.410;2.160;2023-12-14T09:44:07;2.23;;;1.30;;
5363;SDS011;2705;41.410;2.160;2023-12-14T09:46:38;1.97;;;1.40;;
5363;SDS011;2705;41.410;2.160;2023-12-14T09:49:13;1.93;;;1.40;;
5363;SDS011;2705;41.410;2.160;2023-12-14T09:51:42;2.60;;;1.40;;
5363;SDS011;2705;41.410;2.160;2023-12-14T09:54:11;6.20;;;2.00;;
5363;SDS011;2705;41.410;2.160;2023-12-14T09:56:45;1.60;;;1.50;;
5363;SDS011;2705;41.410;2.160;2023-12-14T09:59:15;1.40;;;1.30;;
5363;SDS011;2705;41.410;2.160;2023-12-14T10:01:44;2.60;;;1.40;;
5363;SDS011;2705;41.410;2.160;2023-12-14T10:04:16;3.03;;;2.10;;
5363;SDS011;2705;41.410;2.160;2023-12-14T10:06:46;5.50;;;3.10;;
5363;SDS011;2705;41.410;2.160;2023-12-14T10:09:22;9.17;;;4.77;;
5363;SDS011;2705;41.410;2.160;2023-12-14T10:12:01;8.93;;;4.63;;
5363;SDS011;2705;41.410;2.160;2023-12-14T10:14:32;8.30;;;4.83;;
5363;SDS011;2705;41.410;2.160;2023-12-14T10:17:13;8.33;;;4.70;;
5363;SDS011;2705;41.410;2.160;2023-12-14T10:19:45;8.40;;;4.60;;
5363;SDS011;2705;41.410;2.160;2023-12-14T10:22:15;6.37;;;4.60;;
5363;SDS011;2705;41.410;2.160;2023-12-14T10:24:46;7.70;;;4.30;;
5363;SDS011;2705;41.410;2.160;2023-12-14T10:27:17;4.00;;;3.33;;
5363;SDS011;2705;41.410;2.160;2023-12-14T10:29:45;8.80;;;4.00;;
5363;SDS011;2705;41.410;2.160;2023-12-14T10:32:15;8.57;;;4.00;;
5363;SDS011;2705;41.410;2.160;2023-12-14T10:34:45;5.83;;;3.37;;
5363;SDS011;2705;41.410;2.160;2023-12-14T10:37:14;6.67;;;3.50;;
5363;SDS011;2705;41.410;2.160;2023-12-14T10:39:45;8.10;;;3.20;;
5363;SDS011;2705;41.410;2.160;2023-12-14T10:42:16;4.50;;;2.80;;
5363;SDS011;2705;41.410;2.160;2023-12-14T10:44:49;5.60;;;2.57;;
5363;SDS011;2705;41.410;2.160;2023-12-14T10:47:23;6.83;;;4.80;;
5363;SDS011;2705;41.410;2.160;2023-12-14T10:49:54;6.30;;;2.87;;
5363;SDS011;2705;41.410;2.160;2023-12-14T10:52:25;8.00;;;3.70;;
5363;SDS011;2705;41.410;2.160;2023-12-14T10:54:56;3.10;;;2.40;;
5363;SDS011;2705;41.410;2.160;2023-12-14T10:57:30;6.33;;;2.30;;
5363;SDS011;2705;41.410;2.160;2023-12-14T11:00:00;3.87;;;2.17;;
5363;SDS011;2705;41.410;2.160;2023-12-14T11:02:36;7.80;;;1.93;;
5363;SDS011;2705;41.410;2.160;2023-12-14T11:05:12;1.63;;;1.53;;
5363;SDS011;2705;41.410;2.160;2023-12-14T11:07:47;9.77;;;2.23;;
5363;SDS011;2705;41.410;2.160;2023-12-14T11:10:19;8.17;;;2.13;;
5363;SDS011;2705;41.410;2.160;2023-12-14T11:12:51;6.10;;;1.90;;
5363;SDS011;2705;41.410;2.160;2023-12-14T11:15:27;3.10;;;2.10;;
5363;SDS011;2705;41.410;2.160;2023-12-14T11:20:52;8.73;;;2.00;;
5363;SDS011;2705;41.410;2.160;2023-12-14T11:23:27;4.50;;;1.63;;
5363;SDS011;2705;41.410;2.160;2023-12-14T11:26:02;5.67;;;2.43;;
5363;SDS011;2705;41.410;2.160;2023-12-14T11:28:33;6.90;;;1.70;;
5363;SDS011;2705;41.410;2.160;2023-12-14T11:31:04;11.37;;;1.70;;
5363;SDS011;2705;41.410;2.160;2023-12-14T11:33:35;4.70;;;1.97;;
5363;SDS011;2705;41.410;2.160;2023-12-14T11:36:12;4.83;;;1.70;;
5363;SDS011;2705;41.410;2.160;2023-12-14T11:38:42;1.60;;;1.50;;
5363;SDS011;2705;41.410;2.160;2023-12-14T11:41:11;3.10;;;1.63;;
5363;SDS011;2705;41.410;2.160;2023-12-14T11:43:41;1.53;;;1.40;;
5363;SDS011;2705;41.410;2.160;2023-12-14T11:46:12;4.10;;;1.50;;
5363;SDS011;2705;41.410;2.160;2023-12-14T11:48:43;6.17;;;2.60;;
5363;SDS011;2705;41.410;2.160;2023-12-14T11:51:14;3.67;;;1.70;;
5363;SDS011;2705;41.410;2.160;2023-12-14T11:53:44;2.17;;;1.70;;
5363;SDS011;2705;41.410;2.160;2023-12-14T11:56:15;1.37;;;1.27;;
5363;SDS011;2705;41.410;2.160;2023-12-14T11:58:46;11.70;;;2.33;;
5363;SDS011;2705;41.410;2.160;2023-12-14T12:01:16;2.07;;;1.50;;
5363;SDS011;2705;41.410;2.160;2023-12-14T12:03:48;2.93;;;1.50;;
5363;SDS011;2705;41.410;2.160;2023-12-14T12:06:21;1.90;;;1.30;;
5363;SDS011;2705;41.410;2.160;2023-12-14T12:08:52;2.60;;;1.37;;
5363;SDS011;2705;41.410;2.160;2023-12-14T12:11:22;1.33;;;1.10;;
5363;SDS011;2705;41.410;2.160;2023-12-14T12:13:55;5.00;;;1.03;;
5363;SDS011;2705;41.410;2.160;2023-12-14T12:16:27;4.87;;;1.70;;
5363;SDS011;2705;41.410;2.160;2023-12-14T12:18:56;1.10;;;1.00;;
5363;SDS011;2705;41.410;2.160;2023-12-14T12:21:27;1.47;;;1.27;;
5363;SDS011;2705;41.410;2.160;2023-12-14T12:23:56;1.20;;;1.10;;
5363;SDS011;2705;41.410;2.160;2023-12-14T12:26:25;5.60;;;2.40;;
5363;SDS011;2705;41.410;2.160;2023-12-14T12:28:54;1.23;;;0.90;;
5363;SDS011;2705;41.410;2.160;2023-12-14T12:31:23;4.20;;;1.40;;
5363;SDS011;2705;41.410;2.160;2023-12-14T12:33:52;5.30;;;1.90;;
5363;SDS011;2705;41.410;2.160;2023-12-14T12:36:21;5.67;;;2.40;;
5363;SDS011;2705;41.410;2.160;2023-12-14T12:38:52;2.57;;;1.83;;
5363;SDS011;2705;41.410;2.160;2023-12-14T12:41:21;2.13;;;1.67;;
5363;SDS011;2705;41.410;2.160;2023-12-14T12:43:50;3.80;;;1.33;;
5363;SDS011;2705;41.410;2.160;2023-12-14T12:46:19;1.80;;;1.30;;
5363;SDS011;2705;41.410;2.160;2023-12-14T12:48:48;2.50;;;1.40;;
5363;SDS011;2705;41.410;2.160;2023-12-14T12:51:18;1.77;;;1.33;;
5363;SDS011;2705;41.410;2.160;2023-12-14T12:53:48;1.13;;;1.00;;
5363;SDS011;2705;41.410;2.160;2023-12-14T12:56:21;3.63;;;2.10;;
5363;SDS011;2705;41.410;2.160;2023-12-14T12:58:51;1.70;;;1.40;;
5363;SDS011;2705;41.410;2.160;2023-12-14T13:01:21;1.50;;;1.37;;
5363;SDS011;2705;41.410;2.160;2023-12-14T13:03:55;1.00;;;0.90;;
5363;SDS011;2705;41.410;2.160;2023-12-14T13:06:25;1.60;;;1.10;;
5363;SDS011;2705;41.410;2.160;2023-12-14T13:08:55;2.97;;;2.00;;
5363;SDS011;2705;41.410;2.160;2023-12-14T13:11:26;2.00;;;1.10;;
5363;SDS011;2705;41.410;2.160;2023-12-14T13:13:56;3.27;;;1.57;;
5363;SDS011;2705;41.410;2.160;2023-12-14T13:16:28;4.43;;;1.50;;
5363;SDS011;2705;41.410;2.160;2023-12-14T13:18:57;9.50;;;1.77;;
5363;SDS011;2705;41.410;2.160;2023-12-14T13:21:26;5.10;;;2.77;;
5363;SDS011;2705;41.410;2.160;2023-12-14T13:23:55;2.70;;;2.10;;
5363;SDS011;2705;41.410;2.160;2023-12-14T13:26:26;2.27;;;1.53;;
5363;SDS011;2705;41.410;2.160;2023-12-14T13:28:55;3.47;;;1.40;;
5363;SDS011;2705;41.410;2.160;2023-12-14T13:31:24;2.30;;;1.50;;
5363;SDS011;2705;41.410;2.160;2023-12-14T13:33:53;1.43;;;1.30;;
5363;SDS011;2705;41.410;2.160;2023-12-14T13:36:22;2.83;;;1.40;;
5363;SDS011;2705;41.410;2.160;2023-12-14T13:38:51;2.07;;;1.50;;
5363;SDS011;2705;41.410;2.160;2023-12-14T13:41:21;10.63;;;1.20;;
5363;SDS011;2705;41.410;2.160;2023-12-14T13:43:51;3.10;;;1.50;;
5363;SDS011;2705;41.410;2.160;2023-12-14T13:46:20;2.23;;;1.33;;
5363;SDS011;2705;41.410;2.160;2023-12-14T13:48:51;7.63;;;1.60;;
5363;SDS011;2705;41.410;2.160;2023-12-14T13:51:20;9.40;;;2.40;;
5363;SDS011;2705;41.410;2.160;2023-12-14T13:53:50;3.63;;;2.27;;
5363;SDS011;2705;41.410;2.160;2023-12-14T13:56:19;7.10;;;1.83;;
5363;SDS011;2705;41.410;2.160;2023-12-14T13:58:48;1.60;;;1.10;;
5363;SDS011;2705;41.410;2.160;2023-12-14T14:01:19;2.80;;;1.40;;
5363;SDS011;2705;41.410;2.160;2023-12-14T14:03:48;5.93;;;1.40;;
5363;SDS011;2705;41.410;2.160;2023-12-14T14:06:17;4.50;;;1.60;;
5363;SDS011;2705;41.410;2.160;2023-12-14T14:08:47;3.27;;;1.10;;
5363;SDS011;2705;41.410;2.160;2023-12-14T14:11:16;2.27;;;1.30;;
5363;SDS011;2705;41.410;2.160;2023-12-14T14:13:46;2.60;;;1.40;;
5363;SDS011;2705;41.410;2.160;2023-12-14T14:16:15;2.17;;;1.70;;
5363;SDS011;2705;41.410;2.160;2023-12-14T14:18:49;3.70;;;1.30;;
5363;SDS011;2705;41.410;2.160;2023-12-14T14:21:18;7.23;;;2.40;;
5363;SDS011;2705;41.410;2.160;2023-12-14T14:23:47;6.30;;;1.90;;
5363;SDS011;2705;41.410;2.160;2023-12-14T14:26:16;8.60;;;1.40;;
5363;SDS011;2705;41.410;2.160;2023-12-14T22:02:37;7.43;;;2.00;;
5363;SDS011;2705;41.410;2.160;2023-12-14T22:05:06;3.70;;;2.50;;
5363;SDS011;2705;41.410;2.160;2023-12-14T22:07:35;4.20;;;2.30;;
5363;SDS011;2705;41.410;2.160;2023-12-14T22:10:05;6.83;;;2.10;;
5363;SDS011;2705;41.410;2.160;2023-12-14T22:12:39;3.47;;;1.90;;
5363;SDS011;2705;41.410;2.160;2023-12-14T22:15:12;4.13;;;2.90;;
5363;SDS011;2705;41.410;2.160;2023-12-14T22:17:45;3.90;;;2.67;;
5363;SDS011;2705;41.410;2.160;2023-12-14T22:20:14;3.23;;;2.27;;
5363;SDS011;2705;41.410;2.160;2023-12-14T22:22:43;5.10;;;3.33;;
5363;SDS011;2705;41.410;2.160;2023-12-14T22:25:12;5.13;;;2.37;;
5363;SDS011;2705;41.410;2.160;2023-12-14T22:27:41;3.80;;;2.20;;
5363;SDS011;2705;41.410;2.160;2023-12-14T22:30:10;6.53;;;2.33;;
5363;SDS011;2705;41.410;2.160;2023-12-14T22:32:41;4.00;;;2.20;;
5363;SDS011;2705;41.410;2.160;2023-12-14T22:35:10;6.87;;;2.57;;
5363;SDS011;2705;41.410;2.160;2023-12-14T22:37:39;6.17;;;2.40;;
5363;SDS011;2705;41.410;2.160;2023-12-14T22:40:09;6.43;;;3.83;;
5363;SDS011;2705;41.410;2.160;2023-12-14T22:42:39;8.10;;;4.20;;
5363;SDS011;2705;41.410;2.160;2023-12-14T22:45:08;4.30;;;2.80;;
5363;SDS011;2705;41.410;2.160;2023-12-14T22:47:38;2.57;;;2.13;;
5363;SDS011;2705;41.410;2.160;2023-12-14T22:50:12;10.10;;;2.77;;
5363;SDS011;2705;41.410;2.160;2023-12-14T22:52:41;7.33;;;2.67;;
5363;SDS011;2705;41.410;2.160;2023-12-14T22:55:10;6.50;;;2.60;;
5363;SDS011;2705;41.410;2.160;2023-12-14T22:57:41;6.73;;;2.37;;
5363;SDS011;2705;41.410;2.160;2023-12-14T23:00:11;5.27;;;2.30;;
5363;SDS011;2705;41.410;2.160;2023-12-14T23:02:50;4.33;;;2.40;;
5363;SDS011;2705;41.410;2.160;2023-12-14T23:05:19;6.17;;;2.53;;
5363;SDS011;2705;41.410;2.160;2023-12-14T23:07:49;3.87;;;2.53;;
5363;SDS011;2705;41.410;2.160;2023-12-14T23:10:18;4.33;;;3.00;;